sensor_id;sensor_type;location;lat;lon;timestamp;pressure;altitude;pressure_sealevel;temperature;humidity
10460;BME280;54412;51.206;6.888;2023-03-24T00:00:17;99438.75;;;13.35;82.34
10460;BME280;54412;51.206;6.888;2023-03-24T00:02:45;99435.63;;;13.41;81.99
10460;BME280;54412;51.206;6.888;2023-03-24T00:05:15;99432.88;;;13.31;81.78
10460;BME280;54412;51.206;6.888;2023-03-24T00:07:41;99436.97;;;13.24;82.75
10460;BME280;54412;51.206;6.888;2023-03-24T00:10:15;99425.63;;;13.44;82.21
10460;BME280;54412;51.206;6.888;2023-03-24T00:12:44;99426.63;;;13.32;82.17
10460;BME280;54412;51.206;6.888;2023-03-24T00:15:18;99425.28;;;13.38;81.92
10460;BME280;54412;51.206;6.888;2023-03-24T00:17:46;99427.53;;;13.53;81.15
10460;BME280;54412;51.206;6.888;2023-03-24T00:20:15;99410.34;;;13.37;82.01
10460;BME280;54412;51.206;6.888;2023-03-24T00:22:45;99406.13;;;13.45;82.09
10460;BME280;54412;51.206;6.888;2023-03-24T00:25:16;99410.97;;;13.29;82.54
10460;BME280;54412;51.206;6.888;2023-03-24T00:27:42;99400.13;;;13.32;82.49
10460;BME280;54412;51.206;6.888;2023-03-24T00:30:11;99395.69;;;13.33;82.46
10460;BME280;54412;51.206;6.888;2023-03-24T00:32:37;99394.25;;;13.29;82.84
10460;BME280;54412;51.206;6.888;2023-03-24T00:35:08;99386.53;;;13.26;82.58
10460;BME280;54412;51.206;6.888;2023-03-24T00:37:35;99375.59;;;13.30;82.69
10460;BME280;54412;51.206;6.888;2023-03-24T00:40:04;99375.91;;;13.37;82.42
10460;BME280;54412;51.206;6.888;2023-03-24T00:42:34;99386.38;;;13.38;82.61
10460;BME280;54412;51.206;6.888;2023-03-24T00:45:06;99378.81;;;13.45;82.23
10460;BME280;54412;51.206;6.888;2023-03-24T00:47:34;99366.50;;;13.44;82.58
10460;BME280;54412;51.206;6.888;2023-03-24T00:50:12;99357.22;;;13.49;81.94
10460;BME280;54412;51.206;6.888;2023-03-24T00:52:39;99351.13;;;13.38;83.19
10460;BME280;54412;51.206;6.888;2023-03-24T00:55:11;99354.59;;;13.38;83.08
10460;BME280;54412;51.206;6.888;2023-03-24T00:57:43;99347.88;;;13.45;83.31
10460;BME280;54412;51.206;6.888;2023-03-24T01:00:19;99342.72;;;13.33;84.24
10460;BME280;54412;51.206;6.888;2023-03-24T01:02:48;99338.97;;;13.35;84.22
10460;BME280;54412;51.206;6.888;2023-03-24T01:05:26;99333.81;;;13.34;84.30
10460;BME280;54412;51.206;6.888;2023-03-24T01:07:56;99326.41;;;13.48;83.68
10460;BME280;54412;51.206;6.888;2023-03-24T01:10:23;99320.84;;;13.51;83.42
10460;BME280;54412;51.206;6.888;2023-03-24T01:12:53;99326.19;;;13.40;84.06
10460;BME280;54412;51.206;6.888;2023-03-24T01:15:21;99329.38;;;13.34;84.50
10460;BME280;54412;51.206;6.888;2023-03-24T01:17:49;99330.78;;;13.38;84.46
10460;BME280;54412;51.206;6.888;2023-03-24T01:20:18;99313.75;;;13.52;83.60
10460;BME280;54412;51.206;6.888;2023-03-24T01:22:44;99333.25;;;13.51;83.94
10460;BME280;54412;51.206;6.888;2023-03-24T01:25:21;99329.38;;;13.55;83.61
10460;BME280;54412;51.206;6.888;2023-03-24T01:27:49;99330.09;;;13.36;84.01
10460;BME280;54412;51.206;6.888;2023-03-24T01:30:23;99327.75;;;13.43;83.79
10460;BME280;54412;51.206;6.888;2023-03-24T01:32:50;99318.13;;;13.42;84.01
10460;BME280;54412;51.206;6.888;2023-03-24T01:35:17;99317.75;;;13.46;83.74
10460;BME280;54412;51.206;6.888;2023-03-24T01:37:43;99306.72;;;13.41;83.87
10460;BME280;54412;51.206;6.888;2023-03-24T01:40:16;99302.63;;;13.37;83.79
10460;BME280;54412;51.206;6.888;2023-03-24T01:42:43;99291.91;;;13.39;83.51
10460;BME280;54412;51.206;6.888;2023-03-24T01:45:53;99279.69;;;13.27;84.41
10460;BME280;54412;51.206;6.888;2023-03-24T01:48:53;99276.22;;;13.47;83.42
10460;BME280;54412;51.206;6.888;2023-03-24T01:51:34;99273.09;;;13.42;83.81
10460;BME280;54412;51.206;6.888;2023-03-24T01:54:12;99269.28;;;13.35;83.98
10460;BME280;54412;51.206;6.888;2023-03-24T01:57:02;99270.00;;;13.37;84.18
10460;BME280;54412;51.206;6.888;2023-03-24T01:59:35;99258.28;;;13.50;83.75
10460;BME280;54412;51.206;6.888;2023-03-24T02:02:04;99257.69;;;13.47;84.35
10460;BME280;54412;51.206;6.888;2023-03-24T02:04:36;99249.66;;;13.37;85.19
10460;BME280;54412;51.206;6.888;2023-03-24T02:10:05;99236.16;;;13.40;85.40
10460;BME280;54412;51.206;6.888;2023-03-24T02:12:32;99224.16;;;13.36;85.85
10460;BME280;54412;51.206;6.888;2023-03-24T02:14:58;99215.88;;;13.30;86.33
10460;BME280;54412;51.206;6.888;2023-03-24T02:20:48;99200.97;;;13.29;86.63
10460;BME280;54412;51.206;6.888;2023-03-24T02:26:43;99183.47;;;13.37;86.26
10460;BME280;54412;51.206;6.888;2023-03-24T02:32:48;99188.44;;;13.31;86.38
10460;BME280;54412;51.206;6.888;2023-03-24T02:35:48;99191.66;;;13.34;85.99
10460;BME280;54412;51.206;6.888;2023-03-24T02:41:38;99184.75;;;13.43;84.74
10460;BME280;54412;51.206;6.888;2023-03-24T02:44:47;99188.25;;;13.43;84.92
10460;BME280;54412;51.206;6.888;2023-03-24T02:50:06;99183.53;;;13.47;84.97
10460;BME280;54412;51.206;6.888;2023-03-24T02:52:44;99181.19;;;13.53;84.55
10460;BME280;54412;51.206;6.888;2023-03-24T02:55:39;99192.63;;;13.54;84.06
10460;BME280;54412;51.206;6.888;2023-03-24T02:58:18;99190.56;;;13.57;84.10
10460;BME280;54412;51.206;6.888;2023-03-24T03:00:55;99177.44;;;13.56;84.25
10460;BME280;54412;51.206;6.888;2023-03-24T03:03:37;99175.63;;;13.56;84.15
10460;BME280;54412;51.206;6.888;2023-03-24T03:06:12;99181.84;;;13.67;83.26
10460;BME280;54412;51.206;6.888;2023-03-24T03:08:40;99172.13;;;13.77;82.90
10460;BME280;54412;51.206;6.888;2023-03-24T03:11:12;99178.34;;;13.66;83.44
10460;BME280;54412;51.206;6.888;2023-03-24T03:13:55;99168.44;;;13.68;83.55
10460;BME280;54412;51.206;6.888;2023-03-24T03:16:39;99179.56;;;13.62;83.54
10460;BME280;54412;51.206;6.888;2023-03-24T03:19:18;99182.47;;;13.80;82.88
10460;BME280;54412;51.206;6.888;2023-03-24T03:21:47;99178.63;;;13.73;83.06
10460;BME280;54412;51.206;6.888;2023-03-24T03:24:21;99172.47;;;13.93;82.17
10460;BME280;54412;51.206;6.888;2023-03-24T03:27:18;99166.66;;;13.99;81.50
10460;BME280;54412;51.206;6.888;2023-03-24T03:29:52;99160.69;;;14.06;80.94
10460;BME280;54412;51.206;6.888;2023-03-24T03:32:26;99161.78;;;14.04;80.69
10460;BME280;54412;51.206;6.888;2023-03-24T03:35:13;99168.88;;;13.94;81.13
10460;BME280;54412;51.206;6.888;2023-03-24T03:37:52;99170.38;;;13.87;81.58
10460;BME280;54412;51.206;6.888;2023-03-24T03:40:42;99161.97;;;14.12;80.52
10460;BME280;54412;51.206;6.888;2023-03-24T03:43:15;99163.34;;;14.06;80.38
10460;BME280;54412;51.206;6.888;2023-03-24T03:45:41;99165.19;;;14.15;80.08
10460;BME280;54412;51.206;6.888;2023-03-24T03:48:07;99155.69;;;14.13;79.64
10460;BME280;54412;51.206;6.888;2023-03-24T03:50:33;99174.09;;;14.14;79.61
10460;BME280;54412;51.206;6.888;2023-03-24T03:52:59;99157.81;;;14.19;79.77
10460;BME280;54412;51.206;6.888;2023-03-24T03:55:26;99163.66;;;14.22;78.87
10460;BME280;54412;51.206;6.888;2023-03-24T03:57:53;99175.22;;;14.21;79.20
10460;BME280;54412;51.206;6.888;2023-03-24T04:00:20;99165.19;;;14.15;79.65
10460;BME280;54412;51.206;6.888;2023-03-24T04:03:12;99188.56;;;14.31;78.49
10460;BME280;54412;51.206;6.888;2023-03-24T04:06:02;99183.69;;;14.26;78.94
10460;BME280;54412;51.206;6.888;2023-03-24T04:08:47;99176.00;;;14.33;78.97
10460;BME280;54412;51.206;6.888;2023-03-24T04:14:57;99192.06;;;14.31;79.03
10460;BME280;54412;51.206;6.888;2023-03-24T04:23:04;99186.19;;;14.37;78.37
10460;BME280;54412;51.206;6.888;2023-03-24T04:26:13;99216.78;;;14.32;78.80
10460;BME280;54412;51.206;6.888;2023-03-24T04:29:03;99220.00;;;14.35;80.98
10460;BME280;54412;51.206;6.888;2023-03-24T04:34:33;99243.00;;;13.84;85.76
10460;BME280;54412;51.206;6.888;2023-03-24T04:37:19;99229.84;;;13.73;86.49
10460;BME280;54412;51.206;6.888;2023-03-24T04:39:48;99238.34;;;13.77;86.83
10460;BME280;54412;51.206;6.888;2023-03-24T04:42:24;99252.00;;;13.72;85.81
10460;BME280;54412;51.206;6.888;2023-03-24T04:44:52;99246.56;;;13.74;85.95
10460;BME280;54412;51.206;6.888;2023-03-24T04:47:26;99266.53;;;13.57;85.16
10460;BME280;54412;51.206;6.888;2023-03-24T04:50:02;99271.88;;;13.46;85.88
10460;BME280;54412;51.206;6.888;2023-03-24T04:52:28;99274.03;;;13.52;85.11
10460;BME280;54412;51.206;6.888;2023-03-24T04:54:53;99275.69;;;13.53;85.00
10460;BME280;54412;51.206;6.888;2023-03-24T04:57:19;99279.41;;;13.61;84.75
10460;BME280;54412;51.206;6.888;2023-03-24T05:00:14;99287.72;;;13.57;83.90
10460;BME280;54412;51.206;6.888;2023-03-24T05:02:41;99286.28;;;13.53;84.15
10460;BME280;54412;51.206;6.888;2023-03-24T05:05:10;99300.84;;;13.58;83.81
10460;BME280;54412;51.206;6.888;2023-03-24T05:07:36;99300.78;;;13.49;84.47
10460;BME280;54412;51.206;6.888;2023-03-24T05:10:02;99301.41;;;13.41;84.65
10460;BME280;54412;51.206;6.888;2023-03-24T05:12:28;99308.78;;;13.58;83.88
10460;BME280;54412;51.206;6.888;2023-03-24T05:14:54;99319.25;;;13.60;83.83
10460;BME280;54412;51.206;6.888;2023-03-24T05:17:19;99322.88;;;13.59;83.46
10460;BME280;54412;51.206;6.888;2023-03-24T05:19:45;99334.16;;;13.72;82.05
10460;BME280;54412;51.206;6.888;2023-03-24T05:22:11;99337.91;;;13.38;81.54
10460;BME280;54412;51.206;6.888;2023-03-24T05:24:36;99343.66;;;13.43;81.79
10460;BME280;54412;51.206;6.888;2023-03-24T05:27:04;99343.16;;;13.49;81.40
10460;BME280;54412;51.206;6.888;2023-03-24T05:29:30;99344.97;;;13.48;80.62
10460;BME280;54412;51.206;6.888;2023-03-24T05:31:55;99359.16;;;13.47;79.39
10460;BME280;54412;51.206;6.888;2023-03-24T05:34:21;99363.38;;;13.50;78.41
10460;BME280;54412;51.206;6.888;2023-03-24T05:36:47;99378.81;;;13.45;79.11
10460;BME280;54412;51.206;6.888;2023-03-24T05:39:13;99391.19;;;13.44;77.77
10460;BME280;54412;51.206;6.888;2023-03-24T05:41:38;99399.19;;;13.22;77.75
10460;BME280;54412;51.206;6.888;2023-03-24T05:44:04;99411.81;;;13.19;78.12
10460;BME280;54412;51.206;6.888;2023-03-24T05:46:30;99412.06;;;13.16;76.18
10460;BME280;54412;51.206;6.888;2023-03-24T05:48:55;99426.63;;;13.32;76.86
10460;BME280;54412;51.206;6.888;2023-03-24T05:51:21;99431.06;;;13.10;73.54
10460;BME280;54412;51.206;6.888;2023-03-24T05:53:47;99433.09;;;12.95;72.77
10460;BME280;54412;51.206;6.888;2023-03-24T05:56:13;99442.13;;;12.93;72.75
10460;BME280;54412;51.206;6.888;2023-03-24T05:58:38;99438.50;;;12.94;73.55
10460;BME280;54412;51.206;6.888;2023-03-24T06:01:08;99444.31;;;12.99;74.03
10460;BME280;54412;51.206;6.888;2023-03-24T06:03:35;99448.28;;;13.04;71.51
10460;BME280;54412;51.206;6.888;2023-03-24T06:06:05;99461.53;;;13.04;71.64
10460;BME280;54412;51.206;6.888;2023-03-24T06:08:33;99478.94;;;12.96;70.29
10460;BME280;54412;51.206;6.888;2023-03-24T06:11:00;99466.28;;;12.88;71.13
10460;BME280;54412;51.206;6.888;2023-03-24T06:13:28;99474.38;;;12.98;69.90
10460;BME280;54412;51.206;6.888;2023-03-24T06:15:54;99466.56;;;12.96;69.96
10460;BME280;54412;51.206;6.888;2023-03-24T06:18:24;99486.66;;;13.10;69.19
10460;BME280;54412;51.206;6.888;2023-03-24T06:20:52;99500.97;;;12.96;69.87
10460;BME280;54412;51.206;6.888;2023-03-24T06:23:25;99493.38;;;12.81;69.60
10460;BME280;54412;51.206;6.888;2023-03-24T06:25:56;99499.34;;;12.60;69.02
10460;BME280;54412;51.206;6.888;2023-03-24T06:28:24;99505.44;;;12.61;70.44
10460;BME280;54412;51.206;6.888;2023-03-24T06:30:50;99500.06;;;12.74;69.50
10460;BME280;54412;51.206;6.888;2023-03-24T06:33:16;99509.22;;;12.70;68.99
10460;BME280;54412;51.206;6.888;2023-03-24T06:35:42;99498.69;;;12.46;69.18
10460;BME280;54412;51.206;6.888;2023-03-24T06:38:08;99508.09;;;12.61;68.81
10460;BME280;54412;51.206;6.888;2023-03-24T06:40:34;99513.28;;;12.63;69.67
10460;BME280;54412;51.206;6.888;2023-03-24T06:43:00;99507.16;;;12.62;69.26
10460;BME280;54412;51.206;6.888;2023-03-24T06:45:25;99522.31;;;12.71;68.72
10460;BME280;54412;51.206;6.888;2023-03-24T06:47:52;99516.78;;;12.74;69.15
10460;BME280;54412;51.206;6.888;2023-03-24T06:50:23;99516.22;;;12.82;68.38
10460;BME280;54412;51.206;6.888;2023-03-24T06:52:56;99518.53;;;12.86;67.74
10460;BME280;54412;51.206;6.888;2023-03-24T06:55:22;99519.22;;;12.77;67.73
10460;BME280;54412;51.206;6.888;2023-03-24T06:57:48;99515.97;;;12.85;68.07
10460;BME280;54412;51.206;6.888;2023-03-24T07:00:13;99523.78;;;12.75;67.96
10460;BME280;54412;51.206;6.888;2023-03-24T07:02:40;99542.72;;;12.58;69.37
10460;BME280;54412;51.206;6.888;2023-03-24T07:05:07;99550.59;;;12.82;68.83
10460;BME280;54412;51.206;6.888;2023-03-24T07:07:34;99554.56;;;12.76;68.27
10460;BME280;54412;51.206;6.888;2023-03-24T07:10:03;99555.38;;;12.66;68.46
10460;BME280;54412;51.206;6.888;2023-03-24T07:12:29;99540.03;;;12.82;69.43
10460;BME280;54412;51.206;6.888;2023-03-24T07:14:55;99547.09;;;12.81;69.35
10460;BME280;54412;51.206;6.888;2023-03-24T07:17:22;99546.16;;;12.82;69.06
10460;BME280;54412;51.206;6.888;2023-03-24T07:19:47;99543.94;;;12.65;69.98
10460;BME280;54412;51.206;6.888;2023-03-24T07:22:13;99535.22;;;12.87;69.80
10460;BME280;54412;51.206;6.888;2023-03-24T07:24:38;99532.69;;;12.85;70.11
10460;BME280;54412;51.206;6.888;2023-03-24T07:27:04;99541.69;;;12.83;69.10
10460;BME280;54412;51.206;6.888;2023-03-24T07:29:31;99554.84;;;12.49;70.20
10460;BME280;54412;51.206;6.888;2023-03-24T07:31:57;99557.88;;;12.32;70.74
10460;BME280;54412;51.206;6.888;2023-03-24T07:34:29;99542.63;;;12.71;70.88
10460;BME280;54412;51.206;6.888;2023-03-24T07:36:56;99551.44;;;12.71;69.79
10460;BME280;54412;51.206;6.888;2023-03-24T07:39:21;99556.78;;;12.93;69.97
10460;BME280;54412;51.206;6.888;2023-03-24T07:41:47;99550.84;;;12.79;70.02
10460;BME280;54412;51.206;6.888;2023-03-24T07:44:13;99551.47;;;12.82;69.44
10460;BME280;54412;51.206;6.888;2023-03-24T07:46:39;99562.44;;;13.00;69.00
10460;BME280;54412;51.206;6.888;2023-03-24T07:49:05;99560.69;;;13.11;69.07
10460;BME280;54412;51.206;6.888;2023-03-24T07:51:31;99566.09;;;13.10;68.21
10460;BME280;54412;51.206;6.888;2023-03-24T07:53:57;99579.28;;;12.99;67.77
10460;BME280;54412;51.206;6.888;2023-03-24T07:56:23;99582.59;;;13.02;66.67
10460;BME280;54412;51.206;6.888;2023-03-24T07:58:49;99592.00;;;12.94;67.74
10460;BME280;54412;51.206;6.888;2023-03-24T08:01:15;99597.63;;;12.78;68.13
10460;BME280;54412;51.206;6.888;2023-03-24T08:03:41;99591.69;;;12.63;68.34
10460;BME280;54412;51.206;6.888;2023-03-24T08:06:08;99599.00;;;12.60;68.11
10460;BME280;54412;51.206;6.888;2023-03-24T08:08:35;99594.16;;;12.54;68.98
10460;BME280;54412;51.206;6.888;2023-03-24T08:11:03;99592.84;;;12.59;67.74
10460;BME280;54412;51.206;6.888;2023-03-24T08:13:29;99587.56;;;12.59;67.77
10460;BME280;54412;51.206;6.888;2023-03-24T08:15:55;99602.44;;;12.49;67.18
10460;BME280;54412;51.206;6.888;2023-03-24T08:18:22;99608.53;;;12.74;67.37
10460;BME280;54412;51.206;6.888;2023-03-24T08:20:54;99613.13;;;12.83;67.51
10460;BME280;54412;51.206;6.888;2023-03-24T08:23:21;99605.00;;;13.31;66.68
10460;BME280;54412;51.206;6.888;2023-03-24T08:25:48;99599.31;;;13.14;66.46
10460;BME280;54412;51.206;6.888;2023-03-24T08:28:14;99589.34;;;13.28;65.50
10460;BME280;54412;51.206;6.888;2023-03-24T08:30:41;99588.16;;;13.88;64.67
10460;BME280;54412;51.206;6.888;2023-03-24T08:33:11;99596.09;;;13.88;64.56
10460;BME280;54412;51.206;6.888;2023-03-24T08:35:37;99589.47;;;13.71;64.17
10460;BME280;54412;51.206;6.888;2023-03-24T08:38:04;99604.06;;;13.54;64.27
10460;BME280;54412;51.206;6.888;2023-03-24T08:40:30;99597.25;;;13.06;65.91
10460;BME280;54412;51.206;6.888;2023-03-24T08:43:01;99603.31;;;13.30;66.43
10460;BME280;54412;51.206;6.888;2023-03-24T08:45:30;99591.81;;;13.08;66.86
10460;BME280;54412;51.206;6.888;2023-03-24T08:48:00;99596.09;;;13.21;66.40
10460;BME280;54412;51.206;6.888;2023-03-24T08:50:31;99606.09;;;13.40;65.54
10460;BME280;54412;51.206;6.888;2023-03-24T08:52:57;99603.78;;;13.91;63.90
10460;BME280;54412;51.206;6.888;2023-03-24T08:55:24;99602.84;;;13.70;63.62
10460;BME280;54412;51.206;6.888;2023-03-24T08:57:50;99610.66;;;13.71;64.22
10460;BME280;54412;51.206;6.888;2023-03-24T09:00:18;99608.19;;;14.23;63.23
10460;BME280;54412;51.206;6.888;2023-03-24T09:02:46;99621.59;;;14.11;61.94
10460;BME280;54412;51.206;6.888;2023-03-24T09:05:13;99629.47;;;13.57;62.69
10460;BME280;54412;51.206;6.888;2023-03-24T09:07:40;99614.66;;;13.77;63.36
10460;BME280;54412;51.206;6.888;2023-03-24T09:10:09;99621.66;;;13.78;63.48
10460;BME280;54412;51.206;6.888;2023-03-24T09:12:36;99619.59;;;13.92;62.75
10460;BME280;54412;51.206;6.888;2023-03-24T09:15:04;99626.31;;;14.07;62.27
10460;BME280;54412;51.206;6.888;2023-03-24T09:17:30;99625.50;;;13.74;62.40
10460;BME280;54412;51.206;6.888;2023-03-24T09:19:57;99618.72;;;14.14;61.36
10460;BME280;54412;51.206;6.888;2023-03-24T09:22:23;99616.34;;;14.53;61.07
10460;BME280;54412;51.206;6.888;2023-03-24T09:24:49;99621.56;;;14.76;59.92
10460;BME280;54412;51.206;6.888;2023-03-24T09:27:16;99617.00;;;14.35;59.86
10460;BME280;54412;51.206;6.888;2023-03-24T09:29:43;99615.09;;;14.37;59.72
10460;BME280;54412;51.206;6.888;2023-03-24T09:32:09;99615.38;;;14.54;59.76
10460;BME280;54412;51.206;6.888;2023-03-24T09:34:36;99617.41;;;14.62;58.76
10460;BME280;54412;51.206;6.888;2023-03-24T09:37:04;99619.50;;;14.79;58.22
10460;BME280;54412;51.206;6.888;2023-03-24T09:39:30;99632.94;;;15.39;57.44
10460;BME280;54412;51.206;6.888;2023-03-24T09:41:56;99647.00;;;15.10;56.95
10460;BME280;54412;51.206;6.888;2023-03-24T09:44:50;99627.13;;;14.73;57.17
10460;BME280;54412;51.206;6.888;2023-03-24T09:47:48;99637.38;;;14.77;57.48
10460;BME280;54412;51.206;6.888;2023-03-24T09:50:21;99636.00;;;14.62;58.06
10460;BME280;54412;51.206;6.888;2023-03-24T09:52:52;99645.00;;;14.06;58.64
10460;BME280;54412;51.206;6.888;2023-03-24T09:55:25;99659.09;;;14.17;59.37
10460;BME280;54412;51.206;6.888;2023-03-24T09:57:55;99652.78;;;14.51;58.96
10460;BME280;54412;51.206;6.888;2023-03-24T10:00:25;99654.69;;;14.92;58.33
10460;BME280;54412;51.206;6.888;2023-03-24T10:02:53;99665.41;;;15.02;57.89
10460;BME280;54412;51.206;6.888;2023-03-24T10:05:32;99664.81;;;14.55;58.24
10460;BME280;54412;51.206;6.888;2023-03-24T10:08:16;99672.34;;;14.28;58.51
10460;BME280;54412;51.206;6.888;2023-03-24T10:17:03;99689.34;;;14.15;58.37
10460;BME280;54412;51.206;6.888;2023-03-24T10:19:53;99682.13;;;13.95;59.44
10460;BME280;54412;51.206;6.888;2023-03-24T10:26:01;99684.16;;;13.91;58.20
10460;BME280;54412;51.206;6.888;2023-03-24T10:29:05;99689.56;;;13.79;58.50
10460;BME280;54412;51.206;6.888;2023-03-24T10:31:39;99684.41;;;13.88;58.37
10460;BME280;54412;51.206;6.888;2023-03-24T10:34:10;99689.72;;;13.88;58.62
10460;BME280;54412;51.206;6.888;2023-03-24T10:36:37;99678.22;;;14.43;57.91
10460;BME280;54412;51.206;6.888;2023-03-24T10:39:04;99692.06;;;14.57;57.80
10460;BME280;54412;51.206;6.888;2023-03-24T10:41:32;99686.34;;;14.30;57.91
10460;BME280;54412;51.206;6.888;2023-03-24T10:43:59;99687.88;;;14.11;58.38
10460;BME280;54412;51.206;6.888;2023-03-24T10:46:29;99692.13;;;14.02;57.78
10460;BME280;54412;51.206;6.888;2023-03-24T10:49:15;99692.16;;;14.35;58.01
10460;BME280;54412;51.206;6.888;2023-03-24T10:51:59;99694.28;;;14.19;56.88
10460;BME280;54412;51.206;6.888;2023-03-24T10:54:29;99687.56;;;14.80;55.48
10460;BME280;54412;51.206;6.888;2023-03-24T10:59:34;99682.06;;;15.65;53.36
10460;BME280;54412;51.206;6.888;2023-03-24T11:07:20;99673.19;;;15.14;53.61
10460;BME280;54412;51.206;6.888;2023-03-24T11:12:31;99674.72;;;15.17;53.72
10460;BME280;54412;51.206;6.888;2023-03-24T11:17:46;99674.94;;;15.45;53.20
10460;BME280;54412;51.206;6.888;2023-03-24T11:20:21;99683.34;;;15.92;52.34
10460;BME280;54412;51.206;6.888;2023-03-24T11:28:39;99690.63;;;16.39;51.78
10460;BME280;54412;51.206;6.888;2023-03-24T11:31:12;99690.03;;;15.65;52.05
10460;BME280;54412;51.206;6.888;2023-03-24T11:34:18;99699.59;;;15.36;52.74
10460;BME280;54412;51.206;6.888;2023-03-24T11:36:55;99702.31;;;15.05;53.90
10460;BME280;54412;51.206;6.888;2023-03-24T11:39:25;99702.94;;;14.97;53.79
10460;BME280;54412;51.206;6.888;2023-03-24T11:47:11;99704.25;;;15.55;50.77
10460;BME280;54412;51.206;6.888;2023-03-24T11:50:32;99708.00;;;16.33;50.35
10460;BME280;54412;51.206;6.888;2023-03-24T11:52:59;99687.69;;;16.32;49.92
10460;BME280;54412;51.206;6.888;2023-03-24T12:00:37;99699.88;;;16.35;49.08
10460;BME280;54412;51.206;6.888;2023-03-24T12:08:37;99695.47;;;16.15;49.48
10460;BME280;54412;51.206;6.888;2023-03-24T12:11:16;99681.19;;;15.86;50.26
10460;BME280;54412;51.206;6.888;2023-03-24T12:13:48;99683.16;;;15.84;50.37
10460;BME280;54412;51.206;6.888;2023-03-24T12:16:51;99686.47;;;15.76;50.81
10460;BME280;54412;51.206;6.888;2023-03-24T12:30:43;99659.84;;;15.46;51.47
10460;BME280;54412;51.206;6.888;2023-03-24T12:39:30;99639.41;;;15.26;50.99
10460;BME280;54412;51.206;6.888;2023-03-24T12:54:17;99654.84;;;15.73;49.15
10460;BME280;54412;51.206;6.888;2023-03-24T12:56:52;99646.81;;;16.33;48.97
10460;BME280;54412;51.206;6.888;2023-03-24T12:59:34;99650.72;;;15.90;49.07
10460;BME280;54412;51.206;6.888;2023-03-24T13:02:18;99653.97;;;15.73;49.63
10460;BME280;54412;51.206;6.888;2023-03-24T13:04:48;99652.75;;;15.77;49.54
10460;BME280;54412;51.206;6.888;2023-03-24T13:07:23;99648.81;;;15.30;50.28
10460;BME280;54412;51.206;6.888;2023-03-24T13:10:06;99648.50;;;15.23;50.06
10460;BME280;54412;51.206;6.888;2023-03-24T13:13:09;99656.94;;;15.49;50.91
10460;BME280;54412;51.206;6.888;2023-03-24T13:15:53;99657.78;;;15.49;50.39
10460;BME280;54412;51.206;6.888;2023-03-24T13:18:35;99649.31;;;15.65;50.73
10460;BME280;54412;51.206;6.888;2023-03-24T13:21:15;99645.41;;;15.59;51.10
10460;BME280;54412;51.206;6.888;2023-03-24T13:24:05;99641.47;;;15.63;51.45
10460;BME280;54412;51.206;6.888;2023-03-24T13:26:45;99648.22;;;15.67;50.67
10460;BME280;54412;51.206;6.888;2023-03-24T13:35:35;99650.53;;;16.21;48.19
10460;BME280;54412;51.206;6.888;2023-03-24T13:38:37;99636.66;;;16.77;46.99
10460;BME280;54412;51.206;6.888;2023-03-24T13:41:07;99629.38;;;16.88;46.96
10460;BME280;54412;51.206;6.888;2023-03-24T13:43:35;99623.84;;;17.47;45.58
10460;BME280;54412;51.206;6.888;2023-03-24T13:46:11;99611.28;;;18.03;44.38
10460;BME280;54412;51.206;6.888;2023-03-24T13:48:45;99617.81;;;18.18;43.34
10460;BME280;54412;51.206;6.888;2023-03-24T13:51:28;99616.38;;;17.60;43.32
10460;BME280;54412;51.206;6.888;2023-03-24T13:53:59;99623.06;;;16.51;44.04
10460;BME280;54412;51.206;6.888;2023-03-24T13:56:36;99616.94;;;16.20;44.87
10460;BME280;54412;51.206;6.888;2023-03-24T13:59:27;99628.28;;;16.22;45.24
10460;BME280;54412;51.206;6.888;2023-03-24T14:15:47;99631.19;;;16.68;52.62
10460;BME280;54412;51.206;6.888;2023-03-24T14:21:02;99621.38;;;17.82;49.94
10460;BME280;54412;51.206;6.888;2023-03-24T14:23:44;99628.97;;;17.77;49.44
10460;BME280;54412;51.206;6.888;2023-03-24T14:28:49;99618.72;;;18.09;48.65
10460;BME280;54412;51.206;6.888;2023-03-24T14:31:28;99615.16;;;17.45;48.77
10460;BME280;54412;51.206;6.888;2023-03-24T14:36:40;99609.34;;;16.06;51.51
10460;BME280;54412;51.206;6.888;2023-03-24T14:39:38;99619.19;;;16.15;51.50
10460;BME280;54412;51.206;6.888;2023-03-24T14:45:04;99610.16;;;16.07;51.85
10460;BME280;54412;51.206;6.888;2023-03-24T14:47:36;99610.03;;;15.99;52.72
10460;BME280;54412;51.206;6.888;2023-03-24T14:50:21;99613.06;;;15.85;53.08
10460;BME280;54412;51.206;6.888;2023-03-24T14:52:54;99607.13;;;16.11;53.52
10460;BME280;54412;51.206;6.888;2023-03-24T14:55:22;99611.06;;;16.17;52.00
10460;BME280;54412;51.206;6.888;2023-03-24T14:57:54;99607.81;;;16.13;51.28
10460;BME280;54412;51.206;6.888;2023-03-24T15:00:46;99625.00;;;16.00;51.80
10460;BME280;54412;51.206;6.888;2023-03-24T15:03:40;99620.47;;;15.91;53.96
10460;BME280;54412;51.206;6.888;2023-03-24T15:06:17;99632.88;;;16.11;54.34
10460;BME280;54412;51.206;6.888;2023-03-24T15:08:51;99618.78;;;16.29;55.03
10460;BME280;54412;51.206;6.888;2023-03-24T15:11:39;99621.34;;;16.50;53.69
10460;BME280;54412;51.206;6.888;2023-03-24T15:14:23;99614.16;;;16.41;53.81
10460;BME280;54412;51.206;6.888;2023-03-24T15:16:57;99617.53;;;16.43;53.23
10460;BME280;54412;51.206;6.888;2023-03-24T15:19:28;99606.38;;;16.49;52.59
10460;BME280;54412;51.206;6.888;2023-03-24T15:22:05;99604.66;;;16.38;52.97
10460;BME280;54412;51.206;6.888;2023-03-24T15:24:36;99602.13;;;16.37;51.43
10460;BME280;54412;51.206;6.888;2023-03-24T15:29:36;99601.16;;;15.89;51.79
10460;BME280;54412;51.206;6.888;2023-03-24T15:32:04;99599.84;;;15.74;51.55
10460;BME280;54412;51.206;6.888;2023-03-24T15:34:41;99581.47;;;15.61;51.59
10460;BME280;54412;51.206;6.888;2023-03-24T15:37:35;99598.97;;;15.63;52.31
10460;BME280;54412;51.206;6.888;2023-03-24T15:40:02;99596.00;;;15.57;52.28
10460;BME280;54412;51.206;6.888;2023-03-24T15:42:31;99587.66;;;15.41;51.95
10460;BME280;54412;51.206;6.888;2023-03-24T15:45:30;99593.75;;;15.32;51.68
10460;BME280;54412;51.206;6.888;2023-03-24T15:48:01;99600.47;;;15.36;51.51